Bryson City, North Carolina
Current Conditions -  °F | °C
As of 11:15 AM on Monday 24 Nov 2014 (Local Time) from KRHP Reporting Station
Broken Clouds Broken Clouds  
Wind Chill: 66°   Ceiling: 4600
Heat Index: 66°   Visibility: 10mi
Dew Point: 52°   Wind: 18mph
Humidity: 60%   Direction: 230°SW
Pressure: 29.8"   Gusts: 26mph
Location:  35.43°N, 83.45°W
Report Text: KRHP 241615Z AUTO 23016G23KT 10SM SCT037 BKN046 BKN055 19/11 A2980 RMK AO2 T01890110
Loading
Personal Weather Stations






























Interactive Weather Map New forecast layout! Learn more

10-Day Weather Forecast

Advertisements
Track Severe Weather on mobile